createdAt,value
2023-03-26T00:01:58.379Z,9.06
2023-03-26T00:07:00.116Z,9.21
2023-03-26T00:12:01.420Z,9.18
2023-03-26T00:17:02.749Z,9.13
2023-03-26T00:22:04.003Z,9.02
2023-03-26T00:27:05.666Z,8.82
2023-03-26T00:32:06.932Z,8.73
2023-03-26T00:37:08.839Z,8.88
2023-03-26T00:42:10.127Z,8.37
2023-03-26T00:47:11.388Z,8.28
2023-03-26T00:52:12.668Z,8.13
2023-03-26T00:57:22.628Z,8.72
2023-03-26T01:02:30.618Z,8.84
2023-03-26T01:07:32.170Z,8.60
2023-03-26T01:12:33.486Z,8.27
2023-03-26T01:17:38.033Z,8.69
2023-03-26T01:22:39.388Z,8.78
2023-03-26T01:27:41.110Z,8.94
2023-03-26T01:32:44.083Z,8.89
2023-03-26T01:37:46.803Z,8.75
2023-03-26T01:42:48.087Z,8.77
2023-03-26T01:47:49.342Z,8.86
2023-03-26T01:52:50.666Z,8.99
2023-03-26T01:57:51.882Z,8.94
2023-03-26T02:02:54.958Z,8.70
2023-03-26T02:07:58.515Z,8.72
2023-03-26T02:12:59.832Z,8.93
2023-03-26T02:18:01.938Z,8.92
2023-03-26T02:23:03.963Z,8.68
2023-03-26T02:28:05.845Z,8.51
2023-03-26T02:33:07.142Z,8.43
2023-03-26T02:38:10.121Z,8.61
2023-03-26T02:43:11.550Z,8.64
2023-03-26T02:48:12.987Z,8.69
2023-03-26T02:53:14.279Z,8.71
2023-03-26T02:58:20.067Z,8.75
2023-03-26T03:03:24.374Z,8.78
2023-03-26T03:08:26.394Z,8.69
2023-03-26T03:13:27.802Z,8.68
2023-03-26T03:18:29.058Z,8.73
2023-03-26T03:23:30.439Z,8.66
2023-03-26T03:28:31.710Z,8.66
2023-03-26T03:33:32.965Z,8.69
2023-03-26T03:38:34.225Z,8.71
2023-03-26T03:43:35.616Z,8.58
2023-03-26T03:48:40.157Z,8.63
2023-03-26T03:53:41.643Z,8.58
2023-03-26T03:58:45.474Z,8.23
2023-03-26T04:03:47.125Z,8.27
2023-03-26T04:08:48.622Z,8.31
2023-03-26T04:13:49.876Z,8.15
2023-03-26T04:18:51.172Z,8.00
2023-03-26T04:23:54.243Z,7.89
2023-03-26T04:28:55.540Z,7.77
2023-03-26T04:33:56.835Z,7.83
2023-03-26T04:38:58.531Z,7.83
2023-03-26T04:44:01.876Z,7.70
2023-03-26T04:49:03.335Z,7.50
2023-03-26T04:54:05.989Z,7.40
2023-03-26T04:59:08.055Z,7.35
2023-03-26T05:04:09.348Z,7.33
2023-03-26T05:09:10.701Z,7.32
2023-03-26T05:14:12.001Z,7.10
2023-03-26T05:19:13.262Z,6.99
2023-03-26T05:24:14.481Z,6.87
2023-03-26T05:29:16.082Z,6.82
2023-03-26T05:34:17.440Z,6.94
2023-03-26T05:39:18.718Z,6.85
2023-03-26T05:44:20.088Z,6.85
2023-03-26T05:49:21.360Z,6.85
2023-03-26T05:54:22.608Z,6.94
2023-03-26T05:59:23.938Z,7.04
2023-03-26T06:04:25.426Z,7.21
2023-03-26T06:09:26.844Z,7.46
2023-03-26T06:14:28.361Z,7.68
2023-03-26T06:19:29.678Z,7.88
2023-03-26T06:24:30.951Z,7.69
2023-03-26T06:29:32.227Z,7.70
2023-03-26T06:34:33.480Z,7.47
2023-03-26T06:39:34.781Z,7.61
2023-03-26T06:44:36.126Z,7.64
2023-03-26T06:49:38.174Z,8.02
2023-03-26T06:54:39.577Z,7.97
2023-03-26T06:59:41.004Z,8.23
2023-03-26T07:04:42.219Z,8.33
2023-03-26T07:09:43.445Z,8.30
2023-03-26T07:14:44.720Z,8.62
2023-03-26T07:19:46.060Z,8.48
2023-03-26T07:24:47.300Z,8.72
2023-03-26T07:29:48.610Z,8.52
2023-03-26T07:34:49.989Z,8.62
2023-03-26T07:39:51.214Z,8.71
2023-03-26T07:44:52.623Z,8.76
2023-03-26T07:49:53.931Z,8.83
2023-03-26T07:54:55.215Z,8.89
2023-03-26T07:59:56.524Z,8.84
2023-03-26T08:04:57.858Z,8.72
2023-03-26T08:09:59.163Z,8.88
2023-03-26T08:15:00.584Z,9.01
2023-03-26T08:20:02.460Z,9.22
2023-03-26T08:25:03.951Z,9.54
2023-03-26T08:30:05.229Z,9.62
2023-03-26T08:35:06.604Z,9.59
2023-03-26T08:40:07.968Z,9.74
2023-03-26T08:45:09.257Z,9.71
2023-03-26T08:50:10.549Z,9.96
2023-03-26T08:55:11.825Z,9.99
2023-03-26T09:00:13.222Z,9.70
2023-03-26T09:05:14.625Z,9.73
2023-03-26T09:10:16.022Z,9.95
2023-03-26T09:15:17.321Z,10.15
2023-03-26T09:20:18.610Z,10.66
2023-03-26T09:25:19.963Z,13.24
2023-03-26T09:30:21.239Z,14.03
2023-03-26T09:35:22.531Z,14.41
2023-03-26T09:40:23.747Z,12.49
2023-03-26T09:45:25.021Z,11.67
2023-03-26T09:50:26.453Z,10.67
2023-03-26T09:55:28.162Z,10.77
2023-03-26T10:00:29.578Z,10.84
2023-03-26T10:05:31.322Z,10.43
2023-03-26T10:10:32.591Z,10.54
2023-03-26T10:15:33.804Z,10.42
2023-03-26T10:20:35.410Z,10.29
2023-03-26T10:25:36.621Z,10.24
2023-03-26T10:30:37.866Z,10.36
2023-03-26T10:35:39.181Z,10.10
2023-03-26T10:40:42.877Z,10.11
2023-03-26T10:45:44.139Z,10.11
2023-03-26T10:50:45.431Z,9.60
2023-03-26T10:55:46.840Z,9.23
2023-03-26T11:00:48.172Z,9.09
2023-03-26T11:05:49.540Z,8.78
2023-03-26T11:10:50.956Z,8.86
2023-03-26T11:15:52.195Z,8.88
2023-03-26T11:20:53.657Z,8.71
2023-03-26T11:25:55.100Z,8.74
2023-03-26T11:30:56.574Z,8.79
2023-03-26T11:35:58.099Z,8.95
2023-03-26T11:40:59.312Z,8.77
2023-03-26T11:46:00.611Z,8.79
2023-03-26T11:51:01.885Z,8.74
2023-03-26T11:56:04.123Z,9.03
2023-03-26T12:01:05.445Z,8.94
2023-03-26T12:06:06.695Z,9.17
2023-03-26T12:11:08.889Z,9.54
2023-03-26T12:16:10.311Z,9.43
2023-03-26T12:21:11.555Z,9.45
2023-03-26T12:26:13.183Z,9.30
2023-03-26T12:31:20.570Z,9.38
2023-03-26T12:36:23.268Z,9.82
2023-03-26T12:44:44.554Z,10.44
2023-03-26T12:48:00.391Z,10.02
2023-03-26T12:52:10.829Z,10.25
2023-03-26T12:57:13.415Z,10.58
2023-03-26T13:02:14.827Z,10.57
2023-03-26T13:07:16.092Z,10.70
2023-03-26T13:12:17.400Z,10.73
2023-03-26T13:17:18.765Z,10.76
2023-03-26T13:22:20.154Z,10.80
2023-03-26T13:27:21.430Z,10.87
2023-03-26T13:32:22.719Z,11.40
2023-03-26T13:37:24.506Z,11.10
2023-03-26T13:42:26.684Z,11.57
2023-03-26T13:47:28.001Z,12.30
2023-03-26T13:52:29.238Z,12.23
2023-03-26T13:57:31.898Z,12.06
2023-03-26T14:02:33.192Z,12.15
2023-03-26T14:07:34.476Z,13.27
2023-03-26T14:12:35.697Z,13.65
2023-03-26T14:17:38.425Z,13.58
2023-03-26T14:22:39.781Z,13.74
2023-03-26T14:27:41.127Z,12.91
2023-03-26T14:32:42.400Z,12.46
2023-03-26T14:37:44.004Z,11.74
2023-03-26T14:42:45.830Z,12.57
2023-03-26T14:47:47.162Z,13.68
2023-03-26T14:52:51.769Z,13.89
2023-03-26T14:57:53.263Z,14.79
2023-03-26T15:02:54.574Z,14.12
2023-03-26T15:07:55.840Z,15.84
2023-03-26T15:12:57.073Z,14.92
2023-03-26T15:17:58.414Z,14.33
2023-03-26T15:22:59.701Z,13.53
2023-03-26T15:28:01.205Z,12.73
2023-03-26T15:33:03.767Z,12.60
2023-03-26T15:38:05.289Z,12.00
2023-03-26T15:43:06.865Z,11.69
2023-03-26T15:48:10.518Z,11.90
2023-03-26T15:53:12.530Z,12.22
2023-03-26T15:58:13.904Z,12.20
2023-03-26T16:03:15.554Z,12.45
2023-03-26T16:08:16.835Z,12.99
2023-03-26T16:13:19.013Z,14.78
2023-03-26T16:18:22.772Z,15.46
2023-03-26T16:23:24.085Z,15.91
2023-03-26T16:28:25.437Z,15.37
2023-03-26T16:33:27.127Z,16.07
2023-03-26T16:38:28.382Z,15.68
2023-03-26T16:43:29.646Z,14.88
2023-03-26T16:48:31.242Z,14.43
2023-03-26T16:53:32.611Z,13.50
2023-03-26T16:58:34.001Z,13.92
2023-03-26T17:03:37.776Z,13.56
2023-03-26T17:08:39.137Z,14.07
2023-03-26T17:13:40.413Z,13.51
2023-03-26T17:18:41.980Z,13.18
2023-03-26T17:23:43.302Z,13.01
2023-03-26T17:28:44.653Z,12.92
2023-03-26T17:33:46.020Z,12.65
2023-03-26T17:38:47.296Z,13.00
2023-03-26T17:43:50.104Z,12.77
2023-03-26T17:48:51.343Z,12.49
2023-03-26T17:53:53.070Z,12.72
2023-03-26T17:58:58.653Z,12.71
2023-03-26T18:04:12.463Z,11.74
2023-03-26T18:09:13.812Z,12.01
2023-03-26T18:14:15.129Z,12.13
2023-03-26T18:19:19.716Z,11.03
2023-03-26T18:24:21.843Z,11.40
2023-03-26T18:29:26.115Z,11.05
2023-03-26T18:34:27.673Z,10.63
2023-03-26T18:39:29.252Z,10.08
2023-03-26T18:44:30.995Z,10.15
2023-03-26T18:49:32.274Z,9.99
2023-03-26T18:54:33.536Z,9.84
2023-03-26T18:59:35.100Z,9.34
2023-03-26T19:04:37.215Z,8.85
2023-03-26T19:09:38.760Z,9.07
2023-03-26T19:14:40.201Z,8.67
2023-03-26T19:19:42.693Z,8.81
2023-03-26T19:24:43.997Z,9.29
2023-03-26T19:29:45.588Z,9.35
2023-03-26T19:34:48.187Z,9.07
2023-03-26T19:39:49.457Z,9.21
2023-03-26T19:44:51.651Z,9.26
2023-03-26T19:49:56.175Z,8.96
2023-03-26T19:54:59.538Z,8.87
2023-03-26T20:00:01.704Z,8.13
2023-03-26T20:05:02.967Z,7.78
2023-03-26T20:10:05.675Z,7.79
2023-03-26T20:15:07.300Z,7.61
2023-03-26T20:20:20.972Z,7.69
2023-03-26T20:25:22.190Z,7.98
2023-03-26T20:30:36.860Z,7.37
2023-03-26T20:35:39.072Z,7.31
2023-03-26T20:40:40.416Z,7.29
2023-03-26T20:45:41.719Z,7.46
2023-03-26T20:50:50.253Z,7.59
2023-03-26T20:55:52.121Z,7.30
2023-03-26T21:00:55.382Z,7.37
2023-03-26T21:05:56.792Z,7.51
2023-03-26T21:11:02.024Z,7.84
2023-03-26T21:16:03.643Z,7.64
2023-03-26T21:21:18.091Z,7.60
2023-03-26T21:26:23.852Z,7.83
2023-03-26T21:31:26.535Z,7.27
2023-03-26T21:36:28.184Z,7.18
2023-03-26T21:41:29.522Z,7.23
2023-03-26T21:46:31.829Z,7.03
2023-03-26T21:51:34.015Z,6.93
2023-03-26T21:56:35.596Z,6.80
2023-03-26T22:01:36.955Z,6.81
2023-03-26T22:06:38.281Z,7.18
2023-03-26T22:11:39.701Z,7.30
2023-03-26T22:16:41.533Z,7.25
2023-03-26T22:21:42.866Z,7.17
2023-03-26T22:26:44.096Z,7.56
2023-03-26T22:31:45.378Z,7.96
2023-03-26T22:36:46.708Z,7.77
2023-03-26T22:41:47.974Z,7.59
2023-03-26T22:46:51.329Z,8.13
2023-03-26T22:51:52.951Z,8.08
2023-03-26T22:56:55.475Z,7.64
2023-03-26T23:01:56.925Z,7.65
2023-03-26T23:06:58.206Z,7.41
2023-03-26T23:11:59.567Z,7.44
2023-03-26T23:17:01.513Z,7.69
2023-03-26T23:22:02.790Z,7.71
2023-03-26T23:27:04.613Z,7.71
2023-03-26T23:32:23.365Z,7.49
2023-03-26T23:37:25.328Z,7.67
2023-03-26T23:42:28.265Z,7.63
2023-03-26T23:47:34.942Z,7.81
2023-03-26T23:52:37.555Z,7.75
2023-03-26T23:57:38.819Z,7.64
